Time;durP1;ratioP1;P1;durP2;ratioP2;P2;SDS_P1;SDS_P2;PMS_P1;PMS_P2;Temp;Humidity;BMP_temperature;BMP_pressure;BME280_temperature;BME280_humidity;BME280_pressure;Samples;Min_cycle;Max_cycle;Signal;HPM_P1;HPM_P2
2023/06/17 00:00:07;;;;;;;14.13;11.70;;;17.60;99.90;;;;;;5055338;28;20444;-58
2023/06/17 00:02:34;;;;;;;12.43;10.90;;;17.60;99.90;;;;;;5054067;28;20447;-58
2023/06/17 00:05:02;;;;;;;12.13;10.90;;;17.60;99.90;;;;;;5055116;28;20440;-58
2023/06/17 00:07:29;;;;;;;12.33;11.13;;;17.50;99.90;;;;;;5053840;28;20486;-58
2023/06/17 00:09:57;;;;;;;13.53;10.97;;;17.50;99.90;;;;;;5053704;28;20451;-58
2023/06/17 00:12:24;;;;;;;15.77;12.30;;;17.50;99.90;;;;;;5053592;28;20799;-58
2023/06/17 00:14:53;;;;;;;13.37;11.70;;;17.40;99.90;;;;;;5053581;28;20448;-58
2023/06/17 00:17:21;;;;;;;13.83;12.30;;;17.40;99.90;;;;;;5078369;22;20571;-58
2023/06/17 00:19:48;;;;;;;12.77;11.50;;;17.40;99.90;;;;;;5072550;28;20449;-58
2023/06/17 00:22:14;;;;;;;12.13;11.03;;;17.30;99.90;;;;;;5073251;28;20439;-59
2023/06/17 00:24:41;;;;;;;15.67;11.70;;;17.20;99.90;;;;;;5073387;28;20442;-58
2023/06/17 00:27:09;;;;;;;13.20;11.33;;;17.20;99.90;;;;;;5074707;28;20451;-59
2023/06/17 00:29:36;;;;;;;11.53;10.47;;;17.10;99.90;;;;;;5076976;28;20488;-59
2023/06/17 00:32:03;;;;;;;12.23;11.03;;;17.10;99.90;;;;;;5077126;28;20439;-59
2023/06/17 00:34:30;;;;;;;15.63;11.47;;;17.00;99.90;;;;;;5078072;28;20782;-59
2023/06/17 00:36:57;;;;;;;13.50;12.10;;;17.00;99.90;;;;;;5076711;28;20980;-59
2023/06/17 00:39:23;;;;;;;12.70;11.47;;;17.00;99.90;;;;;;5076563;28;20443;-59
2023/06/17 00:41:50;;;;;;;13.03;11.73;;;16.90;99.90;;;;;;5076749;28;20879;-59
2023/06/17 00:44:18;;;;;;;13.47;12.10;;;16.90;99.90;;;;;;5076616;28;20784;-59
2023/06/17 00:46:50;;;;;;;13.10;11.90;;;16.80;99.90;;;;;;5076853;28;20462;-59
2023/06/17 00:49:18;;;;;;;12.07;10.63;;;16.80;99.90;;;;;;5076574;28;20549;-59
2023/06/17 00:51:45;;;;;;;12.77;11.40;;;16.80;99.90;;;;;;5076410;28;20444;-59
2023/06/17 00:54:13;;;;;;;13.13;11.93;;;16.70;99.90;;;;;;5076671;28;20450;-59
2023/06/17 00:56:42;;;;;;;12.30;11.07;;;16.70;99.90;;;;;;5076466;28;20486;-60
2023/06/17 00:59:09;;;;;;;13.37;12.07;;;16.60;99.90;;;;;;5076546;28;20453;-59
2023/06/17 01:01:37;;;;;;;13.23;11.60;;;16.60;99.90;;;;;;5076500;28;20443;-59
2023/06/17 01:04:06;;;;;;;13.30;12.10;;;16.50;99.90;;;;;;5076385;28;20458;-59
2023/06/17 01:06:43;;;;;;;11.70;10.60;;;16.40;99.90;;;;;;5076553;28;20474;-59
2023/06/17 01:09:17;;;;;;;15.43;10.10;;;16.30;99.90;;;;;;5077118;28;20465;-60
2023/06/17 01:11:45;;;;;;;12.10;11.10;;;16.30;99.90;;;;;;5076304;28;20434;-59
2023/06/17 01:14:14;;;;;;;11.70;9.97;;;16.30;99.90;;;;;;5076389;28;20933;-59
2023/06/17 01:16:43;;;;;;;12.80;11.50;;;16.20;99.90;;;;;;5076192;28;20483;-59
2023/06/17 01:19:18;;;;;;;11.17;10.17;;;16.20;99.90;;;;;;5077121;28;20806;-59
2023/06/17 01:21:48;;;;;;;15.23;11.10;;;16.10;99.90;;;;;;5076539;28;20430;-59
2023/06/17 01:24:27;;;;;;;11.73;10.50;;;16.10;99.90;;;;;;5076739;28;20450;-59
2023/06/17 01:26:56;;;;;;;11.60;10.60;;;16.10;99.90;;;;;;5076546;28;20455;-59
2023/06/17 01:29:26;;;;;;;14.70;10.97;;;16.10;99.90;;;;;;5075971;28;20660;-59
2023/06/17 01:31:56;;;;;;;13.67;10.60;;;16.00;99.90;;;;;;5075917;28;20937;-60
2023/06/17 01:34:30;;;;;;;12.00;10.87;;;16.00;99.90;;;;;;5075763;28;20432;-59
2023/06/17 01:36:59;;;;;;;11.57;10.20;;;16.00;99.90;;;;;;5075232;28;20482;-59
2023/06/17 01:39:28;;;;;;;11.40;10.13;;;15.90;99.90;;;;;;5074765;28;20457;-58
2023/06/17 01:41:58;;;;;;;11.73;10.20;;;15.90;99.90;;;;;;5075308;28;20449;-58
2023/06/17 01:44:26;;;;;;;12.40;10.10;;;15.90;99.90;;;;;;5075596;28;20443;-59
2023/06/17 01:46:53;;;;;;;12.20;10.63;;;15.80;99.90;;;;;;5075742;28;20463;-60
2023/06/17 01:49:20;;;;;;;11.37;10.17;;;15.80;99.90;;;;;;5075325;28;20451;-59
2023/06/17 01:51:46;;;;;;;40.73;24.20;;;15.70;99.90;;;;;;5075263;28;20446;-59
2023/06/17 01:54:13;;;;;;;24.07;16.90;;;15.70;99.90;;;;;;5075059;28;20447;-59
2023/06/17 01:56:41;;;;;;;30.87;19.10;;;15.60;99.90;;;;;;5075125;28;20505;-60
2023/06/17 01:59:08;;;;;;;27.47;19.07;;;15.60;99.90;;;;;;5075088;28;20447;-59
2023/06/17 02:01:35;;;;;;;16.87;12.53;;;15.50;99.90;;;;;;5075046;28;20444;-59
2023/06/17 02:04:02;;;;;;;13.67;12.10;;;15.50;99.90;;;;;;5075101;28;20465;-58
2023/06/17 02:06:28;;;;;;;16.20;11.87;;;15.50;99.90;;;;;;5074576;28;20463;-58
2023/06/17 02:08:55;;;;;;;12.57;11.27;;;15.40;99.90;;;;;;5074514;28;20448;-58
2023/06/17 02:11:22;;;;;;;12.70;11.43;;;15.40;99.90;;;;;;5074882;28;20453;-58
2023/06/17 02:13:50;;;;;;;12.47;9.87;;;15.40;99.90;;;;;;5074902;28;20465;-59
2023/06/17 02:16:17;;;;;;;11.63;10.63;;;15.30;99.90;;;;;;5074628;28;20466;-57
2023/06/17 02:18:45;;;;;;;11.47;10.47;;;15.30;99.90;;;;;;5074920;28;20464;-59
2023/06/17 02:21:11;;;;;;;10.90;9.90;;;15.30;99.90;;;;;;5075072;28;20541;-59
2023/06/17 02:23:38;;;;;;;9.97;8.97;;;15.30;99.90;;;;;;5074519;28;21036;-60
2023/06/17 02:26:05;;;;;;;14.40;11.00;;;15.20;99.90;;;;;;5074649;28;20450;-60
2023/06/17 02:28:32;;;;;;;11.93;10.80;;;15.20;99.90;;;;;;5074539;28;20454;-59
2023/06/17 02:31:00;;;;;;;11.97;10.17;;;15.20;99.90;;;;;;5074341;28;20439;-60
2023/06/17 02:33:27;;;;;;;11.40;10.20;;;15.20;99.90;;;;;;5074483;28;20454;-60
2023/06/17 02:35:54;;;;;;;10.53;9.53;;;15.10;99.90;;;;;;5074465;28;20550;-61
2023/06/17 02:38:24;;;;;;;10.37;9.43;;;15.10;99.90;;;;;;5074869;28;20474;-58
2023/06/17 02:40:51;;;;;;;11.30;10.20;;;15.00;99.90;;;;;;5074718;28;20451;-58
2023/06/17 02:43:17;;;;;;;10.47;9.10;;;14.90;99.90;;;;;;5074986;28;20450;-58
2023/06/17 02:45:44;;;;;;;14.90;10.30;;;14.90;99.90;;;;;;5074530;28;20447;-59
2023/06/17 02:48:13;;;;;;;11.07;9.97;;;14.90;99.90;;;;;;5074621;28;20459;-58
2023/06/17 02:50:40;;;;;;;13.00;10.87;;;14.80;99.90;;;;;;5073650;28;20822;-59
2023/06/17 02:53:07;;;;;;;10.57;9.37;;;14.80;99.90;;;;;;5074797;28;20462;-60
2023/06/17 02:55:34;;;;;;;12.53;10.40;;;14.70;99.90;;;;;;5074682;28;20492;-59
2023/06/17 02:58:02;;;;;;;10.70;9.60;;;14.70;99.90;;;;;;5074843;28;20578;-60
2023/06/17 03:00:29;;;;;;;11.93;10.77;;;14.70;99.90;;;;;;5075136;28;20451;-59
2023/06/17 03:02:56;;;;;;;11.53;10.40;;;14.70;99.90;;;;;;5074030;28;20452;-59
2023/06/17 03:05:24;;;;;;;10.63;9.63;;;14.70;99.90;;;;;;5073971;28;20443;-59
2023/06/17 03:07:51;;;;;;;13.20;11.37;;;14.60;99.90;;;;;;5073507;28;20977;-59
2023/06/17 03:10:18;;;;;;;11.63;10.43;;;14.60;99.90;;;;;;5073782;28;20443;-59
2023/06/17 03:12:45;;;;;;;11.50;10.10;;;14.60;99.90;;;;;;5074024;28;20450;-59
2023/06/17 03:15:13;;;;;;;11.70;10.20;;;14.60;99.90;;;;;;5073993;28;20439;-59
2023/06/17 03:17:40;;;;;;;11.17;10.17;;;14.60;99.90;;;;;;5073468;28;20993;-60
2023/06/17 03:20:08;;;;;;;10.23;9.23;;;14.60;99.90;;;;;;5073551;28;20458;-59
2023/06/17 03:22:36;;;;;;;15.50;10.30;;;14.60;99.90;;;;;;5074067;28;20450;-59
2023/06/17 03:25:03;;;;;;;11.77;10.57;;;14.70;99.90;;;;;;5073843;28;20461;-59
2023/06/17 03:27:31;;;;;;;12.80;10.60;;;14.70;99.90;;;;;;5073462;28;20969;-59
2023/06/17 03:29:58;;;;;;;12.20;11.00;;;14.70;99.90;;;;;;5073570;28;20485;-59
2023/06/17 03:32:24;;;;;;;11.93;10.73;;;14.70;99.90;;;;;;5073270;28;20446;-59
2023/06/17 03:34:52;;;;;;;13.50;11.17;;;14.70;99.90;;;;;;5073776;28;20443;-59
2023/06/17 03:37:19;;;;;;;13.33;12.00;;;14.80;99.90;;;;;;5075446;28;20483;-59
2023/06/17 03:39:47;;;;;;;16.97;11.60;;;14.80;99.90;;;;;;5075840;28;20443;-60
2023/06/17 03:42:16;;;;;;;14.00;12.50;;;14.80;99.90;;;;;;5075277;28;20949;-59
2023/06/17 03:44:43;;;;;;;12.83;11.67;;;14.90;99.90;;;;;;5075895;28;20849;-60
2023/06/17 03:47:10;;;;;;;17.30;11.93;;;14.90;99.90;;;;;;5074511;28;20463;-59
2023/06/17 03:49:37;;;;;;;10.90;9.87;;;15.00;99.90;;;;;;5074614;28;20449;-61
2023/06/17 03:52:04;;;;;;;13.00;11.70;;;15.10;99.90;;;;;;5073344;28;20443;-59
2023/06/17 03:54:32;;;;;;;11.87;10.57;;;15.10;99.90;;;;;;5075944;28;20486;-61
2023/06/17 03:57:00;;;;;;;14.37;10.60;;;15.20;99.90;;;;;;5078565;28;20512;-59
2023/06/17 03:59:27;;;;;;;11.97;10.80;;;15.30;99.90;;;;;;5072796;28;20920;-59
2023/06/17 04:01:54;;;;;;;12.23;11.03;;;15.40;99.90;;;;;;5072498;28;20454;-59
2023/06/17 04:04:20;;;;;;;13.00;11.10;;;15.40;99.90;;;;;;5072962;28;20814;-58
2023/06/17 04:06:47;;;;;;;12.40;11.10;;;15.50;99.90;;;;;;5072575;28;20989;-59
2023/06/17 04:11:50;;;;;;;13.30;12.10;;;15.60;99.90;;;;;;5090392;27;21067;-59
2023/06/17 04:14:17;;;;;;;12.70;11.07;;;15.70;99.90;;;;;;5090139;28;20445;-59
2023/06/17 04:16:44;;;;;;;16.13;12.17;;;15.90;99.90;;;;;;5090256;28;20459;-59
2023/06/17 04:19:13;;;;;;;12.20;10.80;;;16.10;99.90;;;;;;5090098;28;20441;-59
2023/06/17 04:21:40;;;;;;;14.57;11.30;;;16.20;99.90;;;;;;5090310;28;20439;-59
2023/06/17 04:24:07;;;;;;;14.40;12.33;;;16.50;99.90;;;;;;5090179;28;20434;-59
2023/06/17 04:26:34;;;;;;;17.10;12.87;;;16.60;99.70;;;;;;5090108;28;20464;-59
2023/06/17 04:29:03;;;;;;;13.63;12.13;;;16.60;99.60;;;;;;5089877;28;20974;-59
2023/06/17 04:31:30;;;;;;;17.27;13.70;;;16.60;99.80;;;;;;5089817;28;20478;-58
2023/06/17 04:34:00;;;;;;;17.50;14.60;;;16.40;99.90;;;;;;5090091;28;20465;-58
2023/06/17 04:36:27;;;;;;;13.03;11.80;;;16.30;99.90;;;;;;5089762;28;20506;-59
2023/06/17 04:38:54;;;;;;;15.77;13.00;;;16.20;99.90;;;;;;5090085;28;20495;-58
2023/06/17 04:41:20;;;;;;;14.70;12.30;;;16.20;99.90;;;;;;5090064;28;20442;-58
2023/06/17 04:43:48;;;;;;;14.60;13.07;;;16.20;99.90;;;;;;5089609;28;20457;-59
2023/06/17 04:46:17;;;;;;;14.57;12.87;;;16.30;99.90;;;;;;5089374;28;20462;-59
2023/06/17 04:48:44;;;;;;;14.07;12.57;;;16.30;99.90;;;;;;5089879;28;20442;-58
2023/06/17 04:51:12;;;;;;;15.37;13.20;;;16.30;99.90;;;;;;5089583;28;20474;-59
2023/06/17 04:53:39;;;;;;;16.20;13.00;;;16.30;99.90;;;;;;5089655;28;20460;-58
2023/06/17 04:56:06;;;;;;;13.10;11.77;;;16.30;99.90;;;;;;5089334;28;20454;-59
2023/06/17 04:58:33;;;;;;;16.27;13.10;;;16.40;99.90;;;;;;5089757;28;20450;-57
2023/06/17 05:01:00;;;;;;;18.83;14.20;;;16.40;99.90;;;;;;5089548;28;20468;-58
2023/06/17 05:03:28;;;;;;;23.10;15.07;;;16.40;99.90;;;;;;5089718;28;20459;-58
2023/06/17 05:05:55;;;;;;;16.17;14.40;;;16.40;99.90;;;;;;5089531;28;20442;-60
2023/06/17 05:08:21;;;;;;;17.93;15.23;;;16.20;99.90;;;;;;5089781;28;20447;-58
2023/06/17 05:10:48;;;;;;;19.90;16.03;;;16.20;99.90;;;;;;5089098;28;20477;-60
2023/06/17 05:13:15;;;;;;;17.40;14.40;;;16.00;99.90;;;;;;5089264;28;20446;-59
2023/06/17 05:15:42;;;;;;;18.10;14.50;;;16.00;99.90;;;;;;5089275;28;20444;-58
2023/06/17 05:18:08;;;;;;;17.27;15.33;;;15.90;99.90;;;;;;5088896;28;21005;-59
2023/06/17 05:20:37;;;;;;;18.33;13.57;;;15.90;99.90;;;;;;5089233;28;20810;-59
2023/06/17 05:23:04;;;;;;;18.80;15.40;;;15.90;99.90;;;;;;5076581;28;20479;-59
2023/06/17 05:25:31;;;;;;;16.67;14.83;;;16.00;99.90;;;;;;5075726;28;20443;-59
2023/06/17 05:27:57;;;;;;;16.07;14.43;;;16.10;99.90;;;;;;5075557;28;20466;-59
2023/06/17 05:30:24;;;;;;;16.70;14.80;;;16.20;99.90;;;;;;5075506;28;20482;-59
2023/06/17 05:32:51;;;;;;;20.10;16.63;;;16.30;99.90;;;;;;5075576;28;20450;-59
2023/06/17 05:35:18;;;;;;;18.40;14.60;;;16.40;99.90;;;;;;5075264;28;20450;-59
2023/06/17 05:37:46;;;;;;;23.63;16.20;;;16.30;99.90;;;;;;5074923;28;20844;-57
2023/06/17 05:40:13;;;;;;;23.53;16.20;;;16.30;99.90;;;;;;5075315;28;20535;-59
2023/06/17 05:42:40;;;;;;;28.40;17.90;;;16.40;99.90;;;;;;5075343;28;20494;-59
2023/06/17 05:45:08;;;;;;;17.73;15.17;;;16.50;99.90;;;;;;5075308;28;20447;-59
2023/06/17 05:47:34;;;;;;;20.67;13.90;;;16.60;99.90;;;;;;5075212;28;20471;-59
2023/06/17 05:50:01;;;;;;;18.07;14.40;;;16.70;99.90;;;;;;5075305;28;20447;-59
2023/06/17 05:52:28;;;;;;;17.97;15.83;;;16.70;99.90;;;;;;5075291;28;20446;-59
2023/06/17 05:54:56;;;;;;;20.97;16.33;;;16.70;99.90;;;;;;5075256;28;20443;-59
2023/06/17 05:57:23;;;;;;;21.00;16.70;;;16.70;99.90;;;;;;5074833;28;20470;-59
2023/06/17 05:59:49;;;;;;;22.50;18.60;;;16.70;99.90;;;;;;5074927;28;20455;-59
2023/06/17 06:02:16;;;;;;;22.97;16.83;;;16.70;99.90;;;;;;5074776;28;20929;-59
2023/06/17 06:04:43;;;;;;;26.50;18.87;;;16.70;99.90;;;;;;5074597;28;21115;-59
2023/06/17 06:07:10;;;;;;;23.03;18.10;;;16.60;99.90;;;;;;5074867;28;20473;-59
2023/06/17 06:09:36;;;;;;;20.00;16.17;;;16.50;99.90;;;;;;5074356;28;20447;-59
2023/06/17 06:12:06;;;;;;;24.83;16.10;;;16.50;99.90;;;;;;5074460;28;20995;-59
2023/06/17 06:14:32;;;;;;;20.80;16.70;;;16.40;99.90;;;;;;5074969;28;20466;-59
2023/06/17 06:16:59;;;;;;;23.23;16.73;;;16.40;99.90;;;;;;5074361;28;20466;-59
2023/06/17 06:19:26;;;;;;;21.93;18.60;;;16.40;99.90;;;;;;5074294;28;20443;-59
2023/06/17 06:21:53;;;;;;;22.40;17.43;;;16.40;99.90;;;;;;5074319;28;20448;-58
2023/06/17 06:24:19;;;;;;;24.87;18.70;;;16.40;99.90;;;;;;5074408;28;20442;-59
2023/06/17 06:26:46;;;;;;;27.30;18.80;;;16.40;99.90;;;;;;5074553;28;21008;-60
2023/06/17 06:29:15;;;;;;;24.83;17.63;;;16.40;99.90;;;;;;5075148;28;20814;-60
2023/06/17 06:31:43;;;;;;;21.77;17.57;;;16.40;99.90;;;;;;5074776;28;20482;-59
2023/06/17 06:34:10;;;;;;;27.80;20.83;;;16.30;99.90;;;;;;5074171;28;20490;-60
2023/06/17 06:36:36;;;;;;;26.80;18.27;;;16.30;99.90;;;;;;5074908;28;20459;-60
2023/06/17 06:39:03;;;;;;;27.83;20.47;;;16.30;99.90;;;;;;5075047;28;20482;-60
2023/06/17 06:41:30;;;;;;;33.40;21.03;;;16.30;99.90;;;;;;5074520;28;20446;-61
2023/06/17 06:43:57;;;;;;;28.37;19.57;;;16.20;99.90;;;;;;5075350;28;20530;-60
2023/06/17 06:46:25;;;;;;;29.93;21.20;;;16.20;99.90;;;;;;5075145;28;20459;-59
2023/06/17 06:48:52;;;;;;;29.80;20.27;;;16.10;99.90;;;;;;5074780;28;20892;-58
2023/06/17 06:51:19;;;;;;;28.67;20.70;;;16.10;99.90;;;;;;5075105;28;20479;-60
2023/06/17 06:53:46;;;;;;;27.30;19.60;;;16.10;99.90;;;;;;5088890;22;20994;-58
2023/06/17 06:56:12;;;;;;;32.00;20.90;;;16.20;99.90;;;;;;5034009;28;20445;-58
2023/06/17 06:58:39;;;;;;;24.67;19.20;;;16.20;99.90;;;;;;5034041;28;20497;-58
2023/06/17 07:01:06;;;;;;;36.93;18.63;;;16.20;99.90;;;;;;5039673;28;20832;-58
2023/06/17 07:03:34;;;;;;;27.90;21.00;;;16.30;99.90;;;;;;5034673;28;20846;-59
2023/06/17 07:06:01;;;;;;;25.03;18.37;;;16.30;99.90;;;;;;5033938;28;20441;-58
2023/06/17 07:08:28;;;;;;;25.27;18.87;;;16.40;99.90;;;;;;5034642;28;20444;-58
2023/06/17 07:10:54;;;;;;;26.27;19.03;;;16.50;99.90;;;;;;5034606;28;20484;-58
2023/06/17 07:13:21;;;;;;;24.50;17.53;;;16.60;99.90;;;;;;5034490;28;20454;-59
2023/06/17 07:15:48;;;;;;;22.53;16.90;;;16.70;99.90;;;;;;5035640;28;20472;-59
2023/06/17 07:18:15;;;;;;;24.07;19.10;;;16.90;99.90;;;;;;5034078;28;20452;-57
2023/06/17 07:20:43;;;;;;;23.37;18.17;;;17.10;99.90;;;;;;5033796;28;20445;-59
2023/06/17 07:23:10;;;;;;;25.07;18.83;;;17.20;99.90;;;;;;5033741;28;20452;-59
2023/06/17 07:25:37;;;;;;;20.73;17.63;;;17.40;99.90;;;;;;5033595;28;20792;-58
2023/06/17 07:28:05;;;;;;;25.40;18.67;;;17.60;99.90;;;;;;5033719;28;20445;-58
2023/06/17 07:30:32;;;;;;;24.97;18.13;;;17.60;99.90;;;;;;5033611;28;20595;-58
2023/06/17 07:32:58;;;;;;;24.87;18.33;;;17.60;99.90;;;;;;5033456;28;20536;-58
2023/06/17 07:35:25;;;;;;;18.80;16.77;;;17.50;99.90;;;;;;5034144;28;20469;-57
2023/06/17 07:37:54;;;;;;;20.87;16.57;;;17.50;99.90;;;;;;5034705;28;20445;-57
2023/06/17 07:40:21;;;;;;;21.70;17.67;;;17.60;99.90;;;;;;5033958;28;20445;-58
2023/06/17 07:42:47;;;;;;;21.67;18.23;;;17.70;99.90;;;;;;5034116;28;20441;-58
2023/06/17 07:45:14;;;;;;;22.33;17.53;;;17.80;99.90;;;;;;5033175;28;20484;-59
2023/06/17 07:47:41;;;;;;;21.27;17.50;;;17.90;99.90;;;;;;5033547;28;20455;-58
2023/06/17 07:50:09;;;;;;;20.50;17.07;;;18.00;99.90;;;;;;5033736;28;20825;-60
2023/06/17 07:52:36;;;;;;;22.80;16.90;;;18.10;99.90;;;;;;5034823;28;20528;-59
2023/06/17 07:55:05;;;;;;;19.30;16.33;;;18.10;99.90;;;;;;5033237;28;20476;-58
2023/06/17 07:57:32;;;;;;;21.10;15.90;;;18.30;99.90;;;;;;5033376;28;20536;-59
2023/06/17 07:59:59;;;;;;;20.13;16.27;;;18.30;99.90;;;;;;5033451;28;20488;-57
2023/06/17 08:02:26;;;;;;;21.20;17.43;;;18.30;99.90;;;;;;5033824;28;20441;-58
2023/06/17 08:04:52;;;;;;;18.57;16.63;;;18.30;99.80;;;;;;5034567;28;20473;-59
2023/06/17 08:07:20;;;;;;;20.33;16.67;;;18.40;99.60;;;;;;5033878;28;20888;-58
2023/06/17 08:09:47;;;;;;;22.70;16.43;;;18.70;99.20;;;;;;5033931;28;20453;-59
2023/06/17 08:12:15;;;;;;;18.87;16.50;;;18.90;98.40;;;;;;5033798;28;20481;-58
2023/06/17 08:14:42;;;;;;;19.83;17.73;;;19.10;97.30;;;;;;5034590;28;20476;-57
2023/06/17 08:17:08;;;;;;;18.87;16.50;;;19.30;96.00;;;;;;5034448;28;20445;-59
2023/06/17 08:19:35;;;;;;;18.43;15.30;;;19.20;95.80;;;;;;5033846;28;20525;-59
2023/06/17 08:22:02;;;;;;;20.57;17.47;;;19.30;95.30;;;;;;5032751;28;20441;-59
2023/06/17 08:24:29;;;;;;;22.30;17.13;;;19.30;94.90;;;;;;5032676;28;20983;-59
2023/06/17 08:26:56;;;;;;;20.30;17.77;;;19.30;94.70;;;;;;5033345;28;20951;-59
2023/06/17 08:29:25;;;;;;;21.00;17.30;;;19.40;94.40;;;;;;5033254;28;20445;-60
2023/06/17 08:31:53;;;;;;;19.97;17.40;;;19.40;94.10;;;;;;5033174;28;20477;-59
2023/06/17 08:34:21;;;;;;;19.20;16.90;;;19.40;93.60;;;;;;5033668;28;20460;-59
2023/06/17 08:36:52;;;;;;;18.43;16.03;;;19.60;93.10;;;;;;5033822;28;20445;-58
2023/06/17 08:39:19;;;;;;;21.47;17.97;;;19.70;92.00;;;;;;5034101;28;20445;-60
2023/06/17 08:41:46;;;;;;;18.03;16.13;;;19.90;91.50;;;;;;5033642;28;21028;-60
2023/06/17 08:44:14;;;;;;;19.47;16.07;;;20.10;90.60;;;;;;5033697;28;20462;-61
2023/06/17 08:46:44;;;;;;;18.50;16.40;;;20.40;89.10;;;;;;5033546;28;21057;-59
2023/06/17 08:49:13;;;;;;;25.60;17.67;;;20.70;86.50;;;;;;5033524;28;20452;-60
2023/06/17 08:51:41;;;;;;;19.33;17.23;;;20.90;84.30;;;;;;5033838;28;20486;-59
2023/06/17 08:54:10;;;;;;;21.37;17.37;;;21.10;82.30;;;;;;5033918;28;20997;-61
2023/06/17 08:56:37;;;;;;;19.03;16.97;;;21.10;80.50;;;;;;5033912;28;20457;-60
2023/06/17 08:59:04;;;;;;;17.60;15.73;;;21.10;79.00;;;;;;5037530;28;20443;-60
2023/06/17 09:01:31;;;;;;;19.13;16.67;;;21.10;78.80;;;;;;5038214;28;20517;-61
2023/06/17 09:04:01;;;;;;;18.60;16.63;;;21.10;78.60;;;;;;5037832;28;20558;-61
2023/06/17 09:06:29;;;;;;;18.27;16.37;;;21.20;77.60;;;;;;5037652;28;20444;-61
2023/06/17 09:08:57;;;;;;;18.90;16.40;;;21.30;76.90;;;;;;5038185;28;20449;-61
2023/06/17 09:11:25;;;;;;;19.33;17.07;;;21.30;75.90;;;;;;5037912;28;20916;-60
2023/06/17 09:13:53;;;;;;;19.73;15.97;;;21.30;76.10;;;;;;5036724;28;20472;-61
2023/06/17 09:16:26;;;;;;;22.23;18.10;;;21.60;75.30;;;;;;5036743;28;20455;-60
2023/06/17 09:18:55;;;;;;;18.47;15.83;;;21.90;73.20;;;;;;5038618;28;20440;-61
2023/06/17 09:21:24;;;;;;;17.57;15.33;;;22.20;71.60;;;;;;5038428;28;20453;-61
2023/06/17 09:23:56;;;;;;;20.03;17.93;;;22.60;69.50;;;;;;5038363;28;20468;-61
2023/06/17 09:26:29;;;;;;;21.17;16.50;;;22.80;67.70;;;;;;5037326;28;20440;-61
2023/06/17 09:29:00;;;;;;;23.27;18.00;;;22.80;67.00;;;;;;5038512;28;20454;-61
2023/06/17 09:31:28;;;;;;;17.00;15.27;;;22.70;66.40;;;;;;5038487;28;20468;-60
2023/06/17 09:33:55;;;;;;;17.87;16.03;;;22.60;66.10;;;;;;5037634;28;20475;-61
2023/06/17 09:36:24;;;;;;;19.40;16.30;;;22.50;67.00;;;;;;5038509;28;20456;-62
2023/06/17 09:38:51;;;;;;;18.47;16.47;;;22.40;66.50;;;;;;5039029;28;20539;-62
2023/06/17 09:41:18;;;;;;;18.80;15.43;;;22.20;67.00;;;;;;5038765;28;20445;-60
2023/06/17 09:43:50;;;;;;;20.37;16.73;;;22.10;67.40;;;;;;5038220;28;20465;-61
2023/06/17 09:46:24;;;;;;;16.70;15.00;;;22.10;67.40;;;;;;5037529;28;20433;-60
2023/06/17 09:48:53;;;;;;;19.43;16.83;;;22.20;67.00;;;;;;5037594;28;20948;-60
2023/06/17 09:51:23;;;;;;;19.87;16.33;;;22.20;66.40;;;;;;5036967;28;20946;-61
2023/06/17 09:53:51;;;;;;;20.37;17.50;;;22.00;67.20;;;;;;5035675;28;20492;-60
2023/06/17 09:56:19;;;;;;;16.47;14.50;;;21.90;67.00;;;;;;5035984;28;20447;-61
2023/06/17 09:58:47;;;;;;;18.37;16.17;;;21.80;67.20;;;;;;5035633;28;20479;-59
2023/06/17 10:01:16;;;;;;;20.00;16.57;;;21.80;67.10;;;;;;5035406;28;20879;-59
2023/06/17 10:03:42;;;;;;;17.97;16.20;;;21.80;67.40;;;;;;5035529;28;20535;-59
2023/06/17 10:06:11;;;;;;;19.60;16.87;;;21.80;67.10;;;;;;5035985;28;20445;-59
2023/06/17 10:08:42;;;;;;;15.90;14.23;;;21.90;67.20;;;;;;5035177;28;20448;-58
2023/06/17 10:11:12;;;;;;;21.83;15.73;;;22.00;67.00;;;;;;5035938;28;20444;-60
2023/06/17 10:13:41;;;;;;;16.80;15.00;;;22.10;66.30;;;;;;5035868;28;20502;-61
2023/06/17 10:16:12;;;;;;;19.90;17.70;;;22.00;66.30;;;;;;5036379;28;20450;-61
2023/06/17 10:18:42;;;;;;;18.67;16.67;;;21.90;66.50;;;;;;5035603;28;20440;-60
2023/06/17 10:21:12;;;;;;;17.03;14.90;;;21.90;66.60;;;;;;5034985;28;20944;-60
2023/06/17 10:23:42;;;;;;;18.40;15.83;;;22.00;66.80;;;;;;5035814;28;20480;-60
2023/06/17 10:26:11;;;;;;;17.43;14.00;;;22.20;66.40;;;;;;5035596;28;20806;-60
2023/06/17 10:28:45;;;;;;;15.67;13.40;;;22.40;65.90;;;;;;5036315;28;20879;-61
2023/06/17 10:31:24;;;;;;;17.20;15.40;;;22.60;65.40;;;;;;5037152;28;20486;-61
2023/06/17 10:33:52;;;;;;;16.20;14.37;;;22.60;64.80;;;;;;5035822;28;20554;-59
2023/06/17 10:36:21;;;;;;;19.30;16.50;;;22.60;64.70;;;;;;5036001;28;20444;-61
2023/06/17 10:38:56;;;;;;;17.27;15.67;;;22.70;64.70;;;;;;5035564;28;20525;-61
2023/06/17 10:41:23;;;;;;;16.83;15.13;;;22.90;64.10;;;;;;5035993;28;20826;-61
2023/06/17 10:43:50;;;;;;;16.33;14.40;;;23.00;63.40;;;;;;5035397;28;20843;-61
2023/06/17 10:46:24;;;;;;;17.23;14.97;;;23.00;63.00;;;;;;5035132;28;20464;-59
2023/06/17 10:48:51;;;;;;;15.97;14.33;;;23.10;63.10;;;;;;5035259;28;20431;-60
2023/06/17 10:51:20;;;;;;;18.07;16.37;;;23.20;63.20;;;;;;5035239;28;20441;-60
2023/06/17 10:53:48;;;;;;;15.77;14.27;;;23.20;62.40;;;;;;5035022;28;20538;-60
2023/06/17 10:56:16;;;;;;;15.57;13.90;;;23.20;62.30;;;;;;5034989;28;20456;-62
2023/06/17 10:58:46;;;;;;;17.10;15.30;;;23.20;62.30;;;;;;5035050;28;20456;-61
2023/06/17 11:01:12;;;;;;;18.00;15.73;;;23.20;62.10;;;;;;5035372;28;20514;-62
2023/06/17 11:03:40;;;;;;;15.37;13.93;;;23.20;62.00;;;;;;5035940;28;20465;-60
2023/06/17 11:06:08;;;;;;;16.13;14.40;;;23.20;62.00;;;;;;5034881;28;20452;-61
2023/06/17 11:08:37;;;;;;;17.13;15.40;;;23.30;62.00;;;;;;5035178;28;20947;-61
2023/06/17 11:11:08;;;;;;;15.27;12.90;;;23.40;61.50;;;;;;5034092;28;20441;-62
2023/06/17 11:13:37;;;;;;;16.80;15.13;;;23.60;61.10;;;;;;5033617;28;20994;-61
2023/06/17 11:16:04;;;;;;;15.60;14.10;;;23.70;60.70;;;;;;5034122;28;20805;-60
2023/06/17 11:18:31;;;;;;;16.03;14.43;;;23.60;60.30;;;;;;5034448;28;20452;-62
2023/06/17 11:20:58;;;;;;;16.40;14.73;;;23.60;60.20;;;;;;5034958;28;20449;-62
2023/06/17 11:23:26;;;;;;;17.50;15.70;;;23.60;59.90;;;;;;5033758;28;20441;-61
2023/06/17 11:25:53;;;;;;;14.50;13.10;;;23.70;59.80;;;;;;5034177;28;20458;-62
2023/06/17 11:28:21;;;;;;;15.10;13.60;;;23.70;59.50;;;;;;5034080;28;20440;-62
2023/06/17 11:30:50;;;;;;;16.90;15.30;;;23.70;59.40;;;;;;5033363;28;20503;-60
2023/06/17 11:33:20;;;;;;;15.60;14.07;;;23.80;59.50;;;;;;5033492;28;20485;-62
2023/06/17 11:35:48;;;;;;;15.80;14.13;;;23.80;59.30;;;;;;5034690;28;20503;-62
2023/06/17 11:38:16;;;;;;;15.43;12.77;;;23.80;59.00;;;;;;5034152;28;20446;-62
2023/06/17 11:40:43;;;;;;;14.57;13.17;;;23.80;59.00;;;;;;5034152;28;20467;-61
2023/06/17 11:43:10;;;;;;;15.43;13.80;;;23.80;58.80;;;;;;5033956;28;20512;-61
2023/06/17 11:45:37;;;;;;;13.30;11.90;;;23.80;58.60;;;;;;5034099;28;20787;-61
2023/06/17 11:48:06;;;;;;;18.20;14.10;;;24.00;58.60;;;;;;5034058;28;20512;-62
2023/06/17 11:50:33;;;;;;;13.97;12.67;;;24.20;57.70;;;;;;5034710;28;20448;-62
2023/06/17 11:53:02;;;;;;;17.23;15.27;;;24.30;58.00;;;;;;5034787;28;20554;-62
2023/06/17 11:55:33;;;;;;;14.80;13.13;;;24.40;57.10;;;;;;5034657;28;20487;-62
2023/06/17 11:58:01;;;;;;;14.50;13.10;;;24.50;56.70;;;;;;5037206;28;20530;-60
2023/06/17 12:00:28;;;;;;;14.17;12.77;;;24.80;56.40;;;;;;5034215;28;20447;-61
2023/06/17 12:02:56;;;;;;;16.70;13.30;;;25.40;55.30;;;;;;5033537;28;20937;-61
2023/06/17 12:05:28;;;;;;;14.63;13.17;;;26.00;53.60;;;;;;5033256;28;20987;-60
2023/06/17 12:07:59;;;;;;;14.90;13.20;;;26.30;52.60;;;;;;5034398;28;20428;-60
2023/06/17 12:10:26;;;;;;;14.00;12.70;;;26.60;51.90;;;;;;5033711;28;20582;-60
2023/06/17 12:12:55;;;;;;;14.43;12.90;;;27.00;51.10;;;;;;5033599;28;20511;-60
2023/06/17 12:15:27;;;;;;;14.00;12.57;;;27.40;50.30;;;;;;5033803;28;20559;-62
2023/06/17 12:17:54;;;;;;;14.17;11.90;;;27.70;49.20;;;;;;5033113;28;20810;-61
2023/06/17 12:20:22;;;;;;;11.80;10.70;;;27.70;48.60;;;;;;5033467;28;20456;-63
2023/06/17 12:22:51;;;;;;;13.70;11.67;;;27.70;48.90;;;;;;5033502;28;20755;-62
2023/06/17 12:25:18;;;;;;;14.80;13.30;;;27.80;47.90;;;;;;5033544;28;20487;-61
2023/06/17 12:27:45;;;;;;;14.53;13.13;;;27.90;47.60;;;;;;5033469;28;20452;-61
2023/06/17 12:30:13;;;;;;;16.20;12.87;;;27.90;47.20;;;;;;5033155;28;20528;-61
2023/06/17 12:32:40;;;;;;;13.20;11.40;;;28.00;47.10;;;;;;5035237;28;20482;-61